createdAt,value
2018-07-23T00:02:10.992Z,101246.39
2018-07-23T00:04:39.926Z,101242.30
2018-07-23T00:07:08.828Z,101242.27
2018-07-23T00:09:37.730Z,101243.64
2018-07-23T00:12:06.640Z,101241.73
2018-07-23T00:14:35.545Z,101244.50
2018-07-23T00:17:04.454Z,101245.59
2018-07-23T00:19:33.353Z,101246.73
2018-07-23T00:22:02.239Z,101246.73
2018-07-23T00:24:31.118Z,101248.12
2018-07-23T00:27:00.040Z,101245.63
2018-07-23T00:29:28.935Z,101249.50
2018-07-23T00:31:57.847Z,101246.78
2018-07-23T00:34:26.767Z,101259.07
2018-07-23T00:36:55.690Z,101248.69
2018-07-23T00:39:24.555Z,101257.45
2018-07-23T00:41:53.473Z,101256.91
2018-07-23T00:44:22.370Z,101260.20
2018-07-23T00:46:51.265Z,101260.75
2018-07-23T00:49:21.448Z,101256.63
2018-07-23T00:51:50.353Z,101252.26
2018-07-23T00:54:19.237Z,101261.84
2018-07-23T00:56:48.122Z,101258.29
2018-07-23T00:59:17.197Z,101250.65
2018-07-23T01:01:46.071Z,101255.03
2018-07-23T01:04:15.029Z,101254.22
2018-07-23T01:06:43.929Z,101255.02
2018-07-23T01:09:12.835Z,101262.40
2018-07-23T01:11:41.736Z,101264.05
2018-07-23T01:14:10.635Z,101265.70
2018-07-23T01:16:39.548Z,101265.14
2018-07-23T01:19:08.465Z,101261.32
2018-07-23T01:21:37.372Z,101263.78
2018-07-23T01:24:06.336Z,101263.22
2018-07-23T01:26:35.228Z,101267.87
2018-07-23T01:29:04.125Z,101268.96
2018-07-23T01:31:33.040Z,101271.41
2018-07-23T01:34:01.957Z,101265.14
2018-07-23T01:36:31.949Z,101269.77
2018-07-23T01:39:00.880Z,101267.59
2018-07-23T01:41:29.808Z,101263.48
2018-07-23T01:43:58.775Z,101271.12
2018-07-23T01:46:27.699Z,101267.30
2018-07-23T01:48:56.587Z,101268.14
2018-07-23T01:51:25.531Z,101267.02
2018-07-23T01:53:54.421Z,101265.13
2018-07-23T01:56:23.322Z,101269.49
2018-07-23T01:58:52.213Z,101270.56
2018-07-23T02:01:21.121Z,101269.72
2018-07-23T02:03:50.014Z,101273.58
2018-07-23T02:06:18.894Z,101278.48
2018-07-23T02:08:47.844Z,101267.77
2018-07-23T02:11:16.749Z,101275.13
2018-07-23T02:13:45.638Z,101278.47
2018-07-23T02:16:14.576Z,101275.73
2018-07-23T02:18:43.515Z,101268.86
2018-07-23T02:21:12.411Z,101280.31
2018-07-23T02:23:41.302Z,101272.64
2018-07-23T02:26:10.217Z,101278.11
2018-07-23T02:28:39.135Z,101272.13
2018-07-23T02:31:08.090Z,101274.58
2018-07-23T02:33:37.019Z,101280.31
2018-07-23T02:36:05.948Z,101283.81
2018-07-23T02:38:34.851Z,101287.61
2018-07-23T02:41:04.189Z,101284.61
2018-07-23T02:43:33.070Z,101288.14
2018-07-23T02:46:01.981Z,101290.30
2018-07-23T02:48:31.418Z,101278.26
2018-07-23T02:51:00.310Z,101281.52
2018-07-23T02:53:29.198Z,101282.09
2018-07-23T02:55:58.093Z,101277.77
2018-07-23T02:58:26.992Z,101286.53
2018-07-23T03:00:55.894Z,101281.37
2018-07-23T03:03:24.808Z,101279.46
2018-07-23T03:05:53.726Z,101284.65
2018-07-23T03:08:22.639Z,101286.82
2018-07-23T03:10:51.687Z,101280.28
2018-07-23T03:13:20.575Z,101283.52
2018-07-23T03:15:50.136Z,101286.80
2018-07-23T03:18:19.084Z,101290.58
2018-07-23T03:20:47.978Z,101290.30
2018-07-23T03:23:17.358Z,101285.67
2018-07-23T03:25:55.298Z,101286.80
2018-07-23T03:28:24.196Z,101286.73
2018-07-23T03:30:53.100Z,101290.58
2018-07-23T03:33:22.006Z,101290.80
2018-07-23T03:35:50.919Z,101303.66
2018-07-23T03:38:19.802Z,101306.97
2018-07-23T03:40:48.726Z,101302.58
2018-07-23T03:43:17.610Z,101307.44
2018-07-23T03:45:46.509Z,101305.28
2018-07-23T03:48:15.429Z,101306.95
2018-07-23T03:50:44.318Z,101307.46
2018-07-23T03:53:13.194Z,101309.06
2018-07-23T03:55:42.113Z,101312.02
2018-07-23T03:58:12.112Z,101309.00
2018-07-23T04:00:41.119Z,101321.83
2018-07-23T04:03:10.058Z,101319.41
2018-07-23T04:05:39.005Z,101325.63
2018-07-23T04:08:07.901Z,101327.61
2018-07-23T04:10:36.810Z,101321.64
2018-07-23T04:13:05.721Z,101319.69
2018-07-23T04:15:34.659Z,101320.81
2018-07-23T04:18:04.421Z,101316.73
2018-07-23T04:20:36.178Z,101317.81
2018-07-23T04:23:06.097Z,101316.48
2018-07-23T04:25:35.102Z,101322.50
2018-07-23T04:28:04.012Z,101323.83
2018-07-23T04:30:32.931Z,101317.81
2018-07-23T04:33:01.827Z,101323.27
2018-07-23T04:35:30.729Z,101324.30
2018-07-23T04:37:59.680Z,101321.54
2018-07-23T04:40:28.612Z,101329.78
2018-07-23T04:42:57.540Z,101321.05
2018-07-23T04:45:26.433Z,101329.23
2018-07-23T04:47:55.337Z,101326.80
2018-07-23T04:50:24.261Z,101333.33
2018-07-23T04:52:53.185Z,101320.83
2018-07-23T04:55:22.277Z,101329.03
2018-07-23T04:57:51.211Z,101336.40
2018-07-23T05:00:20.125Z,101339.45
2018-07-23T05:02:49.037Z,101340.55
2018-07-23T05:05:17.941Z,101342.47
2018-07-23T05:07:46.849Z,101341.09
2018-07-23T05:10:15.806Z,101344.37
2018-07-23T05:12:44.736Z,101341.42
2018-07-23T05:15:13.606Z,101339.78
2018-07-23T05:17:42.547Z,101345.55
2018-07-23T05:20:11.483Z,101343.95
2018-07-23T05:22:40.430Z,101340.95
2018-07-23T05:25:10.530Z,101350.85
2018-07-23T05:27:39.475Z,101341.02
2018-07-23T05:30:08.419Z,101347.34
2018-07-23T05:32:37.379Z,101346.78
2018-07-23T05:35:06.278Z,101350.91
2018-07-23T05:37:35.211Z,101347.09
2018-07-23T05:40:04.165Z,101351.99
2018-07-23T05:42:33.059Z,101346.55
2018-07-23T05:45:02.101Z,101345.19
2018-07-23T05:47:31.027Z,101349.30
2018-07-23T05:49:59.926Z,101350.42
2018-07-23T05:52:28.860Z,101351.80
2018-07-23T05:54:57.764Z,101350.69
2018-07-23T05:57:26.669Z,101349.33
2018-07-23T05:59:55.721Z,101357.83
2018-07-23T06:02:24.646Z,101350.21
2018-07-23T06:04:53.666Z,101354.03
2018-07-23T06:07:22.561Z,101351.02
2018-07-23T06:09:51.485Z,101351.30
2018-07-23T06:12:20.455Z,101347.47
2018-07-23T06:14:49.445Z,101349.91
2018-07-23T06:17:18.372Z,101354.30
2018-07-23T06:19:47.307Z,101342.53
2018-07-23T06:22:16.285Z,101343.91
2018-07-23T06:24:45.247Z,101348.55
2018-07-23T06:49:27.676Z,101364.58
2018-07-23T06:51:56.674Z,101364.03
2018-07-23T06:54:25.658Z,101369.78
2018-07-23T06:56:54.565Z,101364.02
2018-07-23T06:59:23.481Z,101360.16
2018-07-23T07:01:52.382Z,101364.78
2018-07-23T07:04:21.308Z,101361.53
2018-07-23T07:06:50.198Z,101363.69
2018-07-23T07:09:19.218Z,101368.06
2018-07-23T07:11:48.350Z,101371.89
2018-07-23T07:14:17.265Z,101368.84
2018-07-23T07:16:46.177Z,101368.05
2018-07-23T07:19:15.157Z,101364.51
2018-07-23T07:21:44.071Z,101364.22
2018-07-23T07:24:12.984Z,101363.33
2018-07-23T07:26:41.950Z,101369.05
2018-07-23T07:29:10.859Z,101369.88
2018-07-23T07:31:39.831Z,101367.67
2018-07-23T07:34:08.807Z,101364.65
2018-07-23T07:36:37.713Z,101367.34
2018-07-23T07:39:09.525Z,101362.67
2018-07-23T07:41:38.845Z,101367.56
2018-07-23T07:44:08.286Z,101359.29
2018-07-23T07:46:38.008Z,101358.98
2018-07-23T07:49:07.318Z,101355.11
2018-07-23T07:51:36.243Z,101354.97
2018-07-23T07:54:05.320Z,101352.44
2018-07-23T07:56:34.392Z,101351.84
2018-07-23T07:59:03.346Z,101354.44
2018-07-23T08:01:32.517Z,101352.03
2018-07-23T08:04:01.868Z,101351.17
2018-07-23T08:06:30.837Z,101354.86
2018-07-23T08:08:59.772Z,101355.10
2018-07-23T08:11:28.714Z,101348.47
2018-07-23T08:13:57.954Z,101353.58
2018-07-23T08:16:26.849Z,101348.86
2018-07-23T08:18:56.628Z,101344.92
2018-07-23T08:21:26.495Z,101352.03
2018-07-23T08:23:56.331Z,101355.05
2018-07-23T08:26:27.854Z,101354.87
2018-07-23T08:28:58.545Z,101359.02
2018-07-23T08:31:27.471Z,101356.54
2018-07-23T08:33:56.414Z,101358.24
2018-07-23T08:36:25.357Z,101360.09
2018-07-23T08:38:54.273Z,101368.55
2018-07-23T08:41:23.202Z,101365.47
2018-07-23T08:43:52.092Z,101364.09
2018-07-23T08:46:21.028Z,101357.89
2018-07-23T08:48:50.149Z,101362.04
2018-07-23T08:51:19.147Z,101363.05
2018-07-23T08:53:47.990Z,101365.20
2018-07-23T08:56:17.337Z,101363.59
2018-07-23T08:58:46.165Z,101363.08
2018-07-23T09:01:15.137Z,101360.55
2018-07-23T09:03:44.044Z,101361.82
2018-07-23T09:06:14.098Z,101363.13
2018-07-23T09:08:43.164Z,101365.88
2018-07-23T09:11:12.038Z,101359.37
2018-07-23T09:13:40.965Z,101357.06
2018-07-23T09:16:09.875Z,101354.62
2018-07-23T09:18:38.787Z,101359.78
2018-07-23T09:21:07.770Z,101362.27
2018-07-23T09:23:36.684Z,101355.52
2018-07-23T09:26:05.740Z,101359.34
2018-07-23T09:28:34.669Z,101362.50
2018-07-23T09:31:03.627Z,101358.00
2018-07-23T09:33:32.509Z,101358.91
2018-07-23T09:36:01.453Z,101356.96
2018-07-23T09:38:30.346Z,101360.44
2018-07-23T09:40:59.292Z,101359.49
2018-07-23T09:43:43.073Z,101366.67
2018-07-23T09:46:12.113Z,101360.83
2018-07-23T09:48:41.063Z,101360.45
2018-07-23T09:51:09.955Z,101355.21
2018-07-23T09:53:38.860Z,101358.49
2018-07-23T09:56:08.283Z,101360.17
2018-07-23T09:58:37.219Z,101365.26
2018-07-23T10:01:11.352Z,101361.55
2018-07-23T10:03:40.791Z,101360.83
2018-07-23T10:06:09.611Z,101356.77
2018-07-23T10:08:38.511Z,101356.39
2018-07-23T10:11:07.443Z,101362.61
2018-07-23T10:13:36.379Z,101361.23
2018-07-23T10:16:05.314Z,101358.98
2018-07-23T10:18:34.223Z,101358.63
2018-07-23T10:21:03.194Z,101360.36
2018-07-23T10:23:32.106Z,101359.02
2018-07-23T10:26:01.016Z,101349.13
2018-07-23T10:28:29.927Z,101353.48
2018-07-23T10:30:59.129Z,101353.67
2018-07-23T10:33:31.267Z,101345.64
2018-07-23T10:36:00.173Z,101351.22
2018-07-23T10:38:29.132Z,101348.11
2018-07-23T10:40:58.109Z,101342.95
2018-07-23T10:43:27.068Z,101340.84
2018-07-23T10:45:55.987Z,101338.03
2018-07-23T10:48:24.905Z,101339.36
2018-07-23T10:50:53.855Z,101336.28
2018-07-23T10:53:22.752Z,101331.04
2018-07-23T10:55:51.987Z,101332.25
2018-07-23T10:58:21.594Z,101334.42
2018-07-23T11:00:53.582Z,101337.27
2018-07-23T11:03:22.479Z,101334.62
2018-07-23T11:05:51.369Z,101333.65
2018-07-23T11:08:20.279Z,101330.52
2018-07-23T11:10:49.193Z,101332.27
2018-07-23T11:13:18.105Z,101330.87
2018-07-23T11:15:47.063Z,101330.58
2018-07-23T11:18:15.963Z,101332.39
2018-07-23T11:20:44.872Z,101335.94
2018-07-23T11:23:13.827Z,101337.47
2018-07-23T11:25:42.775Z,101339.51
2018-07-23T11:28:11.657Z,101333.50
2018-07-23T11:30:40.586Z,101331.57
2018-07-23T11:33:09.520Z,101317.40
2018-07-23T11:35:38.411Z,101322.31
2018-07-23T11:38:07.335Z,101321.84
2018-07-23T11:40:36.215Z,101320.81
2018-07-23T11:43:05.537Z,101323.74
2018-07-23T11:45:34.407Z,101324.23
2018-07-23T11:48:03.328Z,101325.28
2018-07-23T11:50:32.482Z,101322.98
2018-07-23T11:53:01.583Z,101326.14
2018-07-23T11:55:30.470Z,101321.45
2018-07-23T11:57:59.420Z,101316.80
2018-07-23T12:00:28.321Z,101321.63
2018-07-23T12:02:57.228Z,101317.30
2018-07-23T12:05:26.271Z,101317.50
2018-07-23T12:07:55.206Z,101305.39
2018-07-23T12:10:24.177Z,101311.22
2018-07-23T12:12:53.150Z,101309.38
2018-07-23T12:15:22.175Z,101309.58
2018-07-23T12:17:51.176Z,101305.80
2018-07-23T12:20:20.150Z,101301.14
2018-07-23T12:22:49.086Z,101297.59
2018-07-23T12:25:17.997Z,101302.35
2018-07-23T12:27:47.005Z,101296.53
2018-07-23T12:30:15.929Z,101302.32
2018-07-23T12:32:44.837Z,101291.58
2018-07-23T12:35:13.754Z,101298.31
2018-07-23T12:37:42.654Z,101297.59
2018-07-23T12:40:11.693Z,101297.31
2018-07-23T12:42:40.622Z,101286.28
2018-07-23T12:45:09.543Z,101296.94
2018-07-23T12:47:38.580Z,101297.58
2018-07-23T12:50:07.540Z,101289.44
2018-07-23T12:52:36.606Z,101292.19
2018-07-23T12:55:05.508Z,101286.12
2018-07-23T12:57:34.489Z,101282.71
2018-07-23T13:00:03.472Z,101285.44
2018-07-23T13:02:32.355Z,101283.95
2018-07-23T13:27:02.389Z,101275.09
2018-07-23T13:29:31.351Z,101273.62
2018-07-23T13:32:00.283Z,101271.40
2018-07-23T13:34:29.189Z,101269.28
2018-07-23T13:36:58.143Z,101272.78
2018-07-23T13:39:27.111Z,101264.90
2018-07-23T13:44:33.628Z,101268.25
2018-07-23T14:03:48.597Z,101253.63
2018-07-23T14:31:09.422Z,101238.95
2018-07-23T14:33:38.343Z,101234.21
2018-07-23T14:52:31.215Z,101227.29
2018-07-23T14:55:00.182Z,101220.52
2018-07-23T14:57:29.055Z,101216.28
2018-07-23T14:59:57.960Z,101217.54
2018-07-23T15:02:26.860Z,101217.54
2018-07-23T15:04:55.771Z,101210.59
2018-07-23T15:07:24.682Z,101216.41
2018-07-23T15:20:53.867Z,101218.02
2018-07-23T15:23:22.902Z,101214.66
2018-07-23T15:25:51.816Z,101213.45
2018-07-23T15:36:34.904Z,101204.47
2018-07-23T15:58:11.177Z,101193.70
2018-07-23T16:00:40.163Z,101188.63
2018-07-23T16:03:09.119Z,101190.84
2018-07-23T16:05:38.048Z,101187.92
2018-07-23T16:08:07.000Z,101194.69
2018-07-23T16:10:36.727Z,101190.54
2018-07-23T16:13:05.675Z,101189.98
2018-07-23T16:15:34.596Z,101190.71
2018-07-23T16:18:03.520Z,101180.72
2018-07-23T16:20:32.551Z,101181.50
2018-07-23T16:23:01.453Z,101181.70
2018-07-23T16:25:30.366Z,101178.80
2018-07-23T16:27:59.291Z,101178.98
2018-07-23T16:30:28.216Z,101180.98
2018-07-23T16:32:57.122Z,101178.73
2018-07-23T16:35:26.060Z,101175.57
2018-07-23T16:37:54.996Z,101176.06
2018-07-23T16:40:23.886Z,101178.59
2018-07-23T16:42:52.829Z,101178.59
2018-07-23T16:45:21.910Z,101177.53
2018-07-23T16:47:51.115Z,101177.69
2018-07-23T16:50:20.046Z,101177.81
2018-07-23T16:52:48.980Z,101179.94
2018-07-23T16:55:18.456Z,101174.95
2018-07-23T16:57:47.390Z,101180.83
2018-07-23T17:00:16.277Z,101175.96
2018-07-23T17:02:45.891Z,101173.97
2018-07-23T17:05:15.023Z,101172.69
2018-07-23T17:07:43.928Z,101173.16
2018-07-23T17:10:12.839Z,101169.27
2018-07-23T17:12:41.786Z,101173.17
2018-07-23T17:15:10.681Z,101171.88
2018-07-23T17:17:39.587Z,101171.88
2018-07-23T17:20:08.487Z,101172.20
2018-07-23T17:22:37.388Z,101172.03
2018-07-23T17:25:06.545Z,101176.77
2018-07-23T17:27:35.540Z,101170.98
2018-07-23T17:30:04.920Z,101179.84
2018-07-23T17:32:33.918Z,101174.72
2018-07-23T17:35:03.012Z,101177.73
2018-07-23T17:37:32.016Z,101173.92
2018-07-23T17:40:01.162Z,101169.44
2018-07-23T17:42:30.051Z,101176.09
2018-07-23T17:44:58.971Z,101168.72
2018-07-23T17:47:27.877Z,101175.22
2018-07-23T17:49:56.791Z,101175.84
2018-07-23T17:52:25.721Z,101171.64
2018-07-23T17:54:54.630Z,101167.16
2018-07-23T17:57:23.996Z,101174.80
2018-07-23T17:59:52.902Z,101170.14
2018-07-23T18:02:21.829Z,101174.62
2018-07-23T18:04:50.734Z,101172.06
2018-07-23T18:07:19.683Z,101178.72
2018-07-23T18:09:48.623Z,101167.64
2018-07-23T18:12:17.592Z,101173.32
2018-07-23T18:14:46.453Z,101172.17
2018-07-23T18:17:15.369Z,101173.63
2018-07-23T18:19:44.266Z,101170.53
2018-07-23T18:22:13.225Z,101169.37
2018-07-23T18:24:43.134Z,101175.88
2018-07-23T18:27:12.391Z,101170.36
2018-07-23T18:29:41.308Z,101173.74
2018-07-23T18:32:10.240Z,101179.12
2018-07-23T18:34:41.298Z,101173.67
2018-07-23T18:37:10.254Z,101174.87
2018-07-23T18:39:39.194Z,101179.16
2018-07-23T18:42:08.134Z,101178.97
2018-07-23T18:44:38.051Z,101176.83
2018-07-23T18:47:07.825Z,101174.44
2018-07-23T18:49:49.086Z,101175.95
2018-07-23T18:52:18.662Z,101174.71
2018-07-23T18:54:48.912Z,101175.91
2018-07-23T18:57:17.920Z,101174.67
2018-07-23T18:59:47.302Z,101175.70
2018-07-23T19:02:17.399Z,101173.08
2018-07-23T19:04:46.352Z,101173.22
2018-07-23T19:07:15.301Z,101167.90
2018-07-23T19:09:44.269Z,101175.47
2018-07-23T19:12:13.437Z,101178.36
2018-07-23T19:14:45.941Z,101173.52
2018-07-23T19:17:15.360Z,101180.87
2018-07-23T19:19:44.634Z,101176.09
2018-07-23T19:22:13.971Z,101178.69
2018-07-23T19:24:43.583Z,101180.98
2018-07-23T19:27:12.493Z,101183.09
2018-07-23T19:29:41.399Z,101187.61
2018-07-23T19:32:10.467Z,101186.99
2018-07-23T19:34:39.350Z,101189.47
2018-07-23T19:37:08.312Z,101190.11
2018-07-23T19:39:42.080Z,101194.86
2018-07-23T19:42:11.051Z,101199.31
2018-07-23T19:44:39.942Z,101202.13
2018-07-23T19:47:08.869Z,101200.00
2018-07-23T19:49:37.803Z,101202.04
2018-07-23T19:52:06.988Z,101207.43
2018-07-23T19:54:35.870Z,101206.97
2018-07-23T19:57:05.392Z,101202.37
2018-07-23T19:59:34.291Z,101208.77
2018-07-23T20:02:03.265Z,101201.52
2018-07-23T20:04:32.161Z,101205.55
2018-07-23T20:07:01.081Z,101206.77
2018-07-23T20:09:33.564Z,101205.75
2018-07-23T20:12:02.489Z,101201.98
2018-07-23T20:14:31.362Z,101210.94
2018-07-23T20:17:03.288Z,101208.28
2018-07-23T20:19:32.286Z,101209.45
2018-07-23T20:22:01.110Z,101207.00
2018-07-23T20:24:30.007Z,101210.92
2018-07-23T20:26:58.917Z,101209.91
2018-07-23T20:29:27.793Z,101206.45
2018-07-23T20:31:56.682Z,101209.03
2018-07-23T20:34:25.775Z,101211.83
2018-07-23T20:36:54.662Z,101206.16
2018-07-23T20:39:23.725Z,101205.23
2018-07-23T20:41:52.767Z,101205.23
2018-07-23T20:44:21.613Z,101212.11
2018-07-23T20:46:50.504Z,101208.33
2018-07-23T20:49:19.899Z,101210.59
2018-07-23T20:51:48.788Z,101207.05
2018-07-23T20:54:17.692Z,101211.80
2018-07-23T20:56:46.852Z,101213.21
2018-07-23T20:59:16.101Z,101211.00
2018-07-23T21:01:45.296Z,101205.59
2018-07-23T21:04:14.628Z,101214.23
2018-07-23T21:06:43.594Z,101206.83
2018-07-23T21:09:12.643Z,101209.08
2018-07-23T21:11:41.756Z,101208.89
2018-07-23T21:14:10.625Z,101205.65
2018-07-23T21:16:39.596Z,101207.19
2018-07-23T21:19:08.625Z,101207.22
2018-07-23T21:21:37.539Z,101211.12
2018-07-23T21:24:06.502Z,101205.58
2018-07-23T21:26:35.383Z,101209.47
2018-07-23T21:29:04.297Z,101212.83
2018-07-23T21:31:36.634Z,101211.30
2018-07-23T21:34:05.668Z,101214.32
2018-07-23T21:36:34.568Z,101211.03
2018-07-23T21:39:04.619Z,101216.00
2018-07-23T21:41:33.598Z,101216.00
2018-07-23T21:44:02.541Z,101224.02
2018-07-23T21:46:31.533Z,101216.15
2018-07-23T21:49:00.546Z,101220.07
2018-07-23T21:51:29.495Z,101220.41
2018-07-23T21:53:58.422Z,101220.44
2018-07-23T21:56:27.509Z,101224.30
2018-07-23T21:58:56.405Z,101218.03
2018-07-23T22:01:26.108Z,101220.94
2018-07-23T22:03:54.977Z,101220.94
2018-07-23T22:06:24.650Z,101225.06
2018-07-23T22:08:55.561Z,101228.14
2018-07-23T22:11:24.558Z,101225.89
2018-07-23T22:13:53.523Z,101224.52
2018-07-23T22:16:22.478Z,101226.52
2018-07-23T22:18:51.415Z,101227.69
2018-07-23T22:21:20.315Z,101225.34
2018-07-23T22:23:49.337Z,101226.23
2018-07-23T22:26:18.248Z,101228.97
2018-07-23T22:28:47.204Z,101231.45
2018-07-23T22:31:16.229Z,101229.48
2018-07-23T22:33:45.259Z,101226.73
2018-07-23T22:36:14.159Z,101232.58
2018-07-23T22:38:43.193Z,101227.36
2018-07-23T22:41:12.097Z,101227.12
2018-07-23T22:43:41.074Z,101223.95
2018-07-23T22:46:09.932Z,101221.50
2018-07-23T22:48:38.854Z,101227.02
2018-07-23T22:51:07.738Z,101223.73
2018-07-23T22:53:36.643Z,101221.61
2018-07-23T22:56:05.526Z,101217.05
2018-07-23T22:58:34.445Z,101221.22
2018-07-23T23:01:03.332Z,101221.75
2018-07-23T23:03:32.224Z,101220.89
2018-07-23T23:06:01.108Z,101213.86
2018-07-23T23:08:30.152Z,101222.36
2018-07-23T23:10:59.060Z,101213.05
2018-07-23T23:13:27.957Z,101213.58
2018-07-23T23:15:56.867Z,101213.03
2018-07-23T23:18:25.842Z,101213.33
2018-07-23T23:20:54.733Z,101210.88
2018-07-23T23:23:23.645Z,101213.91
2018-07-23T23:25:52.536Z,101209.93
2018-07-23T23:28:22.044Z,101210.26
2018-07-23T23:30:51.017Z,101205.03
2018-07-23T23:33:19.900Z,101204.52
2018-07-23T23:35:48.809Z,101202.37
2018-07-23T23:38:17.696Z,101204.86
2018-07-23T23:40:46.575Z,101206.46
2018-07-23T23:43:15.471Z,101201.25
2018-07-23T23:45:44.417Z,101200.70
2018-07-23T23:48:13.345Z,101200.44
2018-07-23T23:50:42.290Z,101202.34
2018-07-23T23:53:11.184Z,101197.09
2018-07-23T23:55:40.092Z,101199.31
2018-07-23T23:58:08.977Z,101200.97
